createdAt,value
2019-03-20T00:01:16.345Z,101710.59
2019-03-20T00:03:42.390Z,101709.70
2019-03-20T00:06:08.344Z,101653.34
2019-03-20T00:08:34.202Z,101704.45
2019-03-20T00:11:00.138Z,101707.52
2019-03-20T00:13:26.009Z,101693.09
2019-03-20T00:15:51.895Z,101700.51
2019-03-20T00:18:17.768Z,101688.32
2019-03-20T00:20:44.677Z,101684.41
2019-03-20T00:23:10.545Z,101685.73
2019-03-20T00:25:36.680Z,101674.40
2019-03-20T00:28:02.721Z,101673.50
2019-03-20T00:30:28.688Z,101679.18
2019-03-20T00:32:54.562Z,101655.66
2019-03-20T00:35:20.527Z,101663.90
2019-03-20T00:37:46.500Z,101655.19
2019-03-20T00:40:13.252Z,101639.98
2019-03-20T00:42:39.138Z,101640.39
2019-03-20T00:45:06.705Z,101633.45
2019-03-20T00:47:32.556Z,101639.51
2019-03-20T00:49:58.432Z,101634.29
2019-03-20T00:52:24.305Z,101631.66
2019-03-20T00:54:52.177Z,101636.47
2019-03-20T00:57:18.093Z,101618.18
2019-03-20T00:59:43.941Z,101633.84
2019-03-20T01:02:09.878Z,101624.27
2019-03-20T01:04:35.899Z,101625.98
2019-03-20T01:07:01.754Z,101630.77
2019-03-20T01:09:27.830Z,101619.42
2019-03-20T01:11:53.978Z,101627.70
2019-03-20T01:14:19.937Z,101609.87
2019-03-20T01:16:45.792Z,101614.23
2019-03-20T01:19:11.791Z,101610.32
2019-03-20T01:21:37.734Z,101599.00
2019-03-20T01:24:03.739Z,101590.31
2019-03-20T01:26:29.873Z,101591.63
2019-03-20T01:28:56.091Z,101582.49
2019-03-20T01:31:21.940Z,101583.81
2019-03-20T01:33:47.777Z,101571.60
2019-03-20T01:36:13.664Z,101564.22
2019-03-20T01:38:39.530Z,101563.77
2019-03-20T01:41:05.410Z,101563.34
2019-03-20T01:43:31.288Z,101565.09
2019-03-20T01:45:57.260Z,101566.39
2019-03-20T01:48:23.105Z,101562.48
2019-03-20T01:50:48.968Z,101555.95
2019-03-20T01:53:14.797Z,101554.66
2019-03-20T01:55:40.661Z,101542.05
2019-03-20T01:58:06.718Z,101542.91
2019-03-20T02:00:32.773Z,101524.20
2019-03-20T02:02:58.731Z,101517.25
2019-03-20T02:05:35.084Z,101515.50
2019-03-20T02:07:52.640Z,101512.89
2019-03-20T02:10:18.641Z,101515.95
2019-03-20T02:12:44.507Z,101513.34
2019-03-20T02:15:11.357Z,101510.73
2019-03-20T02:17:37.254Z,101507.66
2019-03-20T02:20:04.715Z,101511.15
2019-03-20T02:22:30.687Z,101499.39
2019-03-20T02:24:56.584Z,101493.29
2019-03-20T02:27:22.679Z,101494.17
2019-03-20T02:29:48.522Z,101489.38
2019-03-20T02:32:14.439Z,101485.05
2019-03-20T02:34:40.396Z,101465.02
2019-03-20T02:37:06.245Z,101452.39
2019-03-20T02:39:32.115Z,101450.25
2019-03-20T02:41:57.966Z,101450.25
2019-03-20T02:44:23.967Z,101448.49
2019-03-20T02:46:49.840Z,101448.50
2019-03-20T02:49:15.778Z,101452.00
2019-03-20T02:51:41.658Z,101445.47
2019-03-20T02:54:07.540Z,101444.17
2019-03-20T02:56:33.396Z,101432.00
2019-03-20T02:58:59.434Z,101428.08
2019-03-20T03:01:25.318Z,101424.17
2019-03-20T03:03:53.437Z,101416.76
2019-03-20T03:06:19.383Z,101411.96
2019-03-20T03:08:45.222Z,101411.97
2019-03-20T03:11:11.144Z,101374.47
2019-03-20T03:13:37.026Z,101408.94
2019-03-20T03:16:03.016Z,101398.07
2019-03-20T03:18:28.888Z,101396.77
2019-03-20T03:20:54.900Z,101381.94
2019-03-20T03:23:20.756Z,101381.98
2019-03-20T03:25:49.871Z,101374.57
2019-03-20T03:28:14.490Z,101366.73
2019-03-20T03:30:40.326Z,101366.31
2019-03-20T03:33:06.283Z,101353.66
2019-03-20T03:35:32.460Z,101348.02
2019-03-20T03:37:58.330Z,101344.09
2019-03-20T03:40:24.470Z,101343.63
2019-03-20T03:42:50.440Z,101331.87
2019-03-20T03:45:16.667Z,101320.98
2019-03-20T03:47:42.667Z,101318.37
2019-03-20T03:50:08.795Z,101312.72
2019-03-20T03:52:34.751Z,101301.83
2019-03-20T03:55:00.732Z,101297.44
2019-03-20T03:57:26.688Z,101289.16
2019-03-20T03:59:52.657Z,101276.50
2019-03-20T04:02:18.743Z,101268.66
2019-03-20T04:04:44.692Z,101265.59
2019-03-20T04:07:10.607Z,101267.77
2019-03-20T04:09:36.598Z,101257.30
2019-03-20T04:12:02.561Z,101253.78
2019-03-20T04:14:28.436Z,101252.45
2019-03-20T04:16:54.300Z,101242.42
2019-03-20T04:19:20.244Z,101229.31
2019-03-20T04:21:46.196Z,101222.77
2019-03-20T04:24:12.094Z,101221.42
2019-03-20T04:26:38.063Z,101211.36
2019-03-20T04:29:04.149Z,101204.38
2019-03-20T04:31:30.039Z,101202.16
2019-03-20T04:33:57.692Z,101194.73
2019-03-20T04:36:23.642Z,101181.16
2019-03-20T04:38:49.517Z,101183.33
2019-03-20T04:41:15.382Z,101185.02
2019-03-20T04:43:41.229Z,101170.17
2019-03-20T04:46:07.237Z,101169.70
2019-03-20T04:48:33.113Z,101168.79
2019-03-20T04:50:58.979Z,101167.03
2019-03-20T04:53:24.856Z,101160.02
2019-03-20T04:55:50.681Z,101149.93
2019-03-20T04:58:16.548Z,101159.06
2019-03-20T05:00:42.541Z,101162.95
2019-03-20T05:03:08.618Z,101144.16
2019-03-20T05:05:34.471Z,101135.82
2019-03-20T05:08:00.516Z,101123.53
2019-03-20T05:10:26.475Z,101121.34
2019-03-20T05:12:52.318Z,101112.55
2019-03-20T05:15:18.317Z,101114.26
2019-03-20T05:17:44.198Z,101110.74
2019-03-20T05:20:11.048Z,101103.68
2019-03-20T05:22:36.941Z,101103.64
2019-03-20T05:25:03.888Z,101104.48
2019-03-20T05:27:29.748Z,101103.14
2019-03-20T05:29:55.887Z,101098.75
2019-03-20T05:32:21.756Z,101101.75
2019-03-20T05:34:47.630Z,101097.34
2019-03-20T05:37:13.506Z,101088.13
2019-03-20T05:39:39.371Z,101082.83
2019-03-20T05:42:05.209Z,101087.59
2019-03-20T05:44:31.069Z,101081.41
2019-03-20T05:46:57.024Z,101073.06
2019-03-20T05:49:22.899Z,101066.91
2019-03-20T05:51:48.741Z,101064.69
2019-03-20T05:54:14.877Z,101057.20
2019-03-20T05:56:40.763Z,101050.61
2019-03-20T05:59:06.761Z,101050.56
2019-03-20T06:01:32.925Z,101034.38
2019-03-20T06:03:58.793Z,101040.44
2019-03-20T06:06:26.534Z,101036.03
2019-03-20T06:08:52.405Z,101039.02
2019-03-20T06:11:18.246Z,101001.30
2019-03-20T06:13:44.110Z,101038.08
2019-03-20T06:16:09.987Z,101035.84
2019-03-20T06:18:35.887Z,101026.64
2019-03-20T06:21:01.753Z,101029.69
2019-03-20T06:23:27.601Z,101026.99
2019-03-20T06:25:53.487Z,101016.87
2019-03-20T06:28:19.442Z,101006.33
2019-03-20T06:30:45.399Z,101006.28
2019-03-20T06:33:11.273Z,100996.17
2019-03-20T06:35:37.155Z,100997.43
2019-03-20T06:38:03.121Z,101004.38
2019-03-20T06:40:29.009Z,100999.11
2019-03-20T06:42:55.450Z,100989.46
2019-03-20T06:45:22.536Z,100997.69
2019-03-20T06:47:48.533Z,100979.29
2019-03-20T06:50:14.906Z,100973.58
2019-03-20T06:52:40.759Z,100968.70
2019-03-20T06:55:07.283Z,100967.31
2019-03-20T06:57:33.440Z,100964.20
2019-03-20T07:00:17.846Z,100961.95
2019-03-20T07:02:44.038Z,100945.26
2019-03-20T07:05:14.778Z,100950.95
2019-03-20T07:07:44.274Z,100949.61
2019-03-20T07:10:10.416Z,100943.48
2019-03-20T07:12:36.481Z,100943.92
2019-03-20T07:15:02.868Z,100943.05
2019-03-20T07:17:29.948Z,100933.85
2019-03-20T07:19:55.949Z,100932.95
2019-03-20T07:22:21.838Z,100922.41
2019-03-20T07:24:47.706Z,100914.97
2019-03-20T07:27:13.656Z,100915.37
2019-03-20T07:29:39.631Z,100918.41
2019-03-20T07:32:05.766Z,100907.41
2019-03-20T07:34:31.822Z,100909.09
2019-03-20T07:36:57.704Z,100905.09
2019-03-20T07:39:23.538Z,100904.59
2019-03-20T07:41:49.400Z,100901.09
2019-03-20T07:44:15.364Z,100894.09
2019-03-20T07:46:41.210Z,100888.43
2019-03-20T07:49:07.222Z,100885.80
2019-03-20T07:51:33.199Z,100880.08
2019-03-20T07:53:59.050Z,100875.27
2019-03-20T07:56:25.037Z,100870.41
2019-03-20T07:58:50.874Z,100828.39
2019-03-20T08:01:16.742Z,100874.73
2019-03-20T08:03:42.613Z,100864.66
2019-03-20T08:06:08.664Z,100865.50
2019-03-20T08:08:34.509Z,100858.06
2019-03-20T08:11:00.361Z,100856.72
2019-03-20T08:13:26.265Z,100856.72
2019-03-20T08:15:52.302Z,100848.86
2019-03-20T08:18:18.166Z,100843.11
2019-03-20T08:20:44.038Z,100848.36
2019-03-20T08:23:09.947Z,100839.19
2019-03-20T08:25:36.824Z,100841.82
2019-03-20T08:28:02.897Z,100847.11
2019-03-20T08:30:28.764Z,100850.14
2019-03-20T08:32:54.712Z,100847.92
2019-03-20T08:35:20.572Z,100851.80
2019-03-20T08:37:46.654Z,100843.44
2019-03-20T08:40:14.636Z,100837.17
2019-03-20T08:42:40.588Z,100836.23
2019-03-20T08:45:08.159Z,100834.85
2019-03-20T08:47:34.001Z,100827.34
2019-03-20T08:49:59.909Z,100819.42
2019-03-20T08:52:25.783Z,100819.78
2019-03-20T08:54:51.651Z,100814.97
2019-03-20T08:57:17.546Z,100807.59
2019-03-20T08:59:43.394Z,100807.19
2019-03-20T09:02:09.256Z,100802.84
2019-03-20T09:04:35.840Z,100799.77
2019-03-20T09:07:01.776Z,100793.27
2019-03-20T09:09:27.633Z,100799.00
2019-03-20T09:11:53.516Z,100791.16
2019-03-20T09:14:19.519Z,100783.23
2019-03-20T09:16:45.388Z,100782.25
2019-03-20T09:19:11.242Z,100778.64
2019-03-20T09:21:37.122Z,100773.75
2019-03-20T09:24:03.275Z,100770.69
2019-03-20T09:26:29.152Z,100769.41
2019-03-20T09:28:55.319Z,100764.19
2019-03-20T09:31:21.185Z,100760.72
2019-03-20T09:33:47.355Z,100759.80
2019-03-20T09:36:13.232Z,100752.69
2019-03-20T09:38:43.418Z,100760.47
2019-03-20T09:41:06.846Z,100761.19
2019-03-20T09:43:32.714Z,100757.61
2019-03-20T09:45:58.599Z,100754.36
2019-03-20T09:48:24.457Z,100753.80
2019-03-20T09:50:50.332Z,100761.22
2019-03-20T09:53:16.253Z,100752.77
2019-03-20T09:55:42.079Z,100748.02
2019-03-20T09:58:11.798Z,100757.62
2019-03-20T10:00:35.689Z,100749.19
2019-03-20T10:03:01.567Z,100744.25
2019-03-20T10:05:27.425Z,100747.67
2019-03-20T10:07:53.304Z,100748.00
2019-03-20T10:10:25.694Z,100746.59
2019-03-20T10:12:51.536Z,100742.25
2019-03-20T10:15:18.174Z,100748.83
2019-03-20T10:17:44.327Z,100741.38
2019-03-20T10:20:11.487Z,100745.33
2019-03-20T10:22:39.026Z,100745.28
2019-03-20T10:25:06.004Z,100746.95
2019-03-20T10:27:31.961Z,100748.11
2019-03-20T10:29:58.021Z,100754.56
2019-03-20T10:32:23.869Z,100756.64
2019-03-20T10:34:49.983Z,100759.20
2019-03-20T10:37:15.854Z,100764.45
2019-03-20T10:39:41.755Z,100758.80
2019-03-20T10:42:07.815Z,100767.12
2019-03-20T10:44:33.634Z,100765.38
2019-03-20T10:46:59.550Z,100771.47
2019-03-20T10:49:25.485Z,100777.05
2019-03-20T10:51:51.333Z,100776.94
2019-03-20T10:54:17.187Z,100769.39
2019-03-20T10:56:43.049Z,100770.98
2019-03-20T10:59:09.035Z,100769.53
2019-03-20T11:01:42.647Z,100770.28
2019-03-20T11:04:02.769Z,100774.06
2019-03-20T11:06:28.619Z,100771.34
2019-03-20T11:08:55.843Z,100776.48
2019-03-20T11:11:27.081Z,100780.34
2019-03-20T11:13:49.326Z,100786.84
2019-03-20T11:16:15.206Z,100784.56
2019-03-20T11:18:41.151Z,100790.63
2019-03-20T11:21:07.109Z,100780.92
2019-03-20T11:23:33.000Z,100778.55
2019-03-20T11:26:00.005Z,100788.42
2019-03-20T11:28:26.019Z,100785.92
2019-03-20T11:30:51.919Z,100770.27
2019-03-20T11:33:17.776Z,100775.61
2019-03-20T11:35:43.889Z,100777.83
2019-03-20T11:38:09.789Z,100784.41
2019-03-20T11:40:36.641Z,100783.48
2019-03-20T11:43:02.903Z,100783.38
2019-03-20T11:45:28.857Z,100791.38
2019-03-20T11:47:54.821Z,100799.83
2019-03-20T11:50:28.392Z,100798.84
2019-03-20T11:52:54.607Z,100796.98
2019-03-20T11:55:20.982Z,100806.07
2019-03-20T11:57:49.102Z,100805.52
2019-03-20T12:00:16.860Z,100801.46
2019-03-20T12:02:42.816Z,100792.70
2019-03-20T12:05:08.786Z,100799.25
2019-03-20T12:07:34.816Z,100801.73
2019-03-20T12:10:00.807Z,100799.37
2019-03-20T12:12:26.777Z,100794.44
2019-03-20T12:14:52.627Z,100797.84
2019-03-20T12:17:20.243Z,100796.76
2019-03-20T12:19:46.364Z,100797.42
2019-03-20T12:22:12.221Z,100801.64
2019-03-20T12:24:38.101Z,100804.52
2019-03-20T12:27:14.678Z,100801.27
2019-03-20T12:29:31.716Z,100803.75
2019-03-20T12:31:57.569Z,100806.56
2019-03-20T12:34:25.356Z,100808.98
2019-03-20T12:36:51.299Z,100801.81
2019-03-20T12:39:18.631Z,100806.05
2019-03-20T12:41:44.479Z,100804.68
2019-03-20T12:44:10.360Z,100806.87
2019-03-20T12:46:41.478Z,100797.95
2019-03-20T12:49:04.006Z,100805.83
2019-03-20T12:51:29.985Z,100815.84
2019-03-20T12:53:55.827Z,100808.89
2019-03-20T12:56:21.714Z,100805.43
2019-03-20T12:58:47.577Z,100801.33
2019-03-20T13:01:13.434Z,100809.42
2019-03-20T13:03:39.322Z,100804.79
2019-03-20T13:06:05.193Z,100804.98
2019-03-20T13:08:31.060Z,100805.63
2019-03-20T13:10:57.052Z,100812.97
2019-03-20T13:13:24.840Z,100806.53
2019-03-20T13:15:50.666Z,100805.50
2019-03-20T13:18:16.529Z,100774.34
2019-03-20T13:20:42.669Z,100805.69
2019-03-20T13:23:13.364Z,100810.48
2019-03-20T13:25:39.249Z,100812.52
2019-03-20T13:28:05.196Z,100820.23
2019-03-20T13:30:32.952Z,100816.81
2019-03-20T13:32:58.870Z,100813.27
2019-03-20T13:35:24.658Z,100814.13
2019-03-20T13:37:50.722Z,100811.31
2019-03-20T13:40:16.748Z,100802.25
2019-03-20T13:42:42.613Z,100805.02
2019-03-20T13:45:13.348Z,100806.16
2019-03-20T13:47:39.236Z,100802.95
2019-03-20T13:50:07.045Z,100804.36
2019-03-20T13:52:32.909Z,100806.95
2019-03-20T13:54:58.867Z,100809.15
2019-03-20T13:57:24.714Z,100811.41
2019-03-20T13:59:50.676Z,100811.00
2019-03-20T14:02:16.787Z,100813.30
2019-03-20T14:04:42.626Z,100811.72
2019-03-20T14:07:08.476Z,100816.31
2019-03-20T14:09:34.340Z,100813.57
2019-03-20T14:12:00.203Z,100825.30
2019-03-20T14:14:26.048Z,100822.10
2019-03-20T14:16:51.906Z,100826.39
2019-03-20T14:19:17.768Z,100830.80
2019-03-20T14:21:43.643Z,100809.36
2019-03-20T14:24:09.617Z,100838.61
2019-03-20T14:26:35.459Z,100847.14
2019-03-20T14:29:01.328Z,100844.47
2019-03-20T14:31:27.270Z,100848.55
2019-03-20T14:33:53.228Z,100855.44
2019-03-20T14:36:19.105Z,100854.65
2019-03-20T14:38:45.135Z,100854.27
2019-03-20T14:41:17.614Z,100857.72
2019-03-20T14:43:38.727Z,100870.95
2019-03-20T14:46:04.597Z,100880.34
2019-03-20T14:48:30.456Z,100871.56
2019-03-20T14:50:56.422Z,100879.70
2019-03-20T14:53:22.396Z,100878.15
2019-03-20T14:55:48.481Z,100886.83
2019-03-20T14:58:14.327Z,100886.67
2019-03-20T15:00:40.300Z,100895.88
2019-03-20T15:03:06.179Z,100893.53
2019-03-20T15:05:32.148Z,100895.02
2019-03-20T15:07:58.125Z,100886.47
2019-03-20T15:10:24.506Z,100894.29
2019-03-20T15:12:50.770Z,100891.78
2019-03-20T15:15:21.325Z,100902.16
2019-03-20T15:17:47.278Z,100904.58
2019-03-20T15:20:13.119Z,100904.50
2019-03-20T15:22:39.000Z,100902.20
2019-03-20T15:25:06.764Z,100903.91
2019-03-20T15:27:32.624Z,100913.01
2019-03-20T15:29:58.587Z,100911.02
2019-03-20T15:32:24.559Z,100909.39
2019-03-20T15:34:50.432Z,100918.83
2019-03-20T15:37:16.289Z,100918.91
2019-03-20T15:39:42.270Z,100918.66
2019-03-20T15:42:08.243Z,100925.83
2019-03-20T15:44:34.104Z,100930.41
2019-03-20T15:46:59.959Z,100936.73
2019-03-20T15:49:25.934Z,100939.92
2019-03-20T15:51:51.900Z,100941.39
2019-03-20T15:54:17.739Z,100938.80
2019-03-20T15:56:43.706Z,100942.92
2019-03-20T15:59:09.687Z,100938.77
2019-03-20T16:01:35.524Z,100943.45
2019-03-20T16:04:01.782Z,100943.66
2019-03-20T16:06:27.679Z,100944.67
2019-03-20T16:08:56.689Z,100950.11
2019-03-20T16:11:21.319Z,100949.37
2019-03-20T16:13:47.307Z,100955.63
2019-03-20T16:16:13.184Z,100954.41
2019-03-20T16:18:39.044Z,100957.19
2019-03-20T16:21:04.932Z,100957.33
2019-03-20T16:23:30.792Z,100955.55
2019-03-20T16:25:56.738Z,100961.94
2019-03-20T16:28:22.705Z,100958.54
2019-03-20T16:30:48.670Z,100960.88
2019-03-20T16:33:14.539Z,100964.56
2019-03-20T16:35:40.424Z,100965.96
2019-03-20T16:38:07.160Z,100969.62
2019-03-20T16:40:33.999Z,100967.09
2019-03-20T16:42:59.989Z,100966.29
2019-03-20T16:45:32.352Z,100970.34
2019-03-20T16:47:58.333Z,100967.36
2019-03-20T16:50:25.310Z,100971.53
2019-03-20T16:52:51.246Z,100972.58
2019-03-20T16:55:17.223Z,100973.19
2019-03-20T16:57:43.168Z,100972.83
2019-03-20T17:00:25.845Z,100979.20
2019-03-20T17:02:51.822Z,100977.48
2019-03-20T17:05:17.773Z,100981.72
2019-03-20T17:07:44.773Z,100994.42
2019-03-20T17:10:12.130Z,100993.86
2019-03-20T17:12:38.141Z,100998.41
2019-03-20T17:15:05.940Z,100993.84
2019-03-20T17:17:31.783Z,100993.61
2019-03-20T17:19:57.659Z,101000.53
2019-03-20T17:22:23.534Z,100995.48
2019-03-20T17:24:49.403Z,100998.25
2019-03-20T17:27:15.247Z,101004.12
2019-03-20T17:29:41.133Z,101009.59
2019-03-20T17:32:07.101Z,101005.29
2019-03-20T17:34:33.143Z,101015.02
2019-03-20T17:36:59.014Z,101007.24
2019-03-20T17:39:24.859Z,101010.88
2019-03-20T17:41:50.939Z,101022.05
2019-03-20T17:44:16.811Z,101024.81
2019-03-20T17:46:42.762Z,101032.53
2019-03-20T17:49:08.661Z,101032.71
2019-03-20T17:51:34.517Z,101031.13
2019-03-20T17:54:00.373Z,101032.17
2019-03-20T17:56:26.539Z,101043.50
2019-03-20T17:58:52.389Z,101040.80
2019-03-20T18:01:18.236Z,101056.02
2019-03-20T18:03:44.126Z,101060.48
2019-03-20T18:06:09.981Z,101064.17
2019-03-20T18:08:35.822Z,101070.02
2019-03-20T18:11:01.698Z,101065.66
2019-03-20T18:13:27.748Z,101067.37
2019-03-20T18:15:53.991Z,101070.02
2019-03-20T18:18:19.950Z,101073.55
2019-03-20T18:20:45.819Z,101085.45
2019-03-20T18:23:11.866Z,101085.50
2019-03-20T18:25:37.737Z,101090.80
2019-03-20T18:28:03.823Z,101098.29
2019-03-20T18:30:30.736Z,101101.33
2019-03-20T18:32:56.725Z,101102.26
2019-03-20T18:38:11.143Z,101098.29
2019-03-20T18:40:37.110Z,101107.07
2019-03-20T18:43:03.269Z,101111.97
2019-03-20T18:45:29.197Z,101125.65
2019-03-20T18:47:55.167Z,101125.65
2019-03-20T18:50:21.829Z,101122.66
2019-03-20T18:52:48.042Z,101113.50
2019-03-20T18:55:14.405Z,101118.84
2019-03-20T18:57:42.536Z,101118.02
2019-03-20T19:00:12.821Z,101120.67
2019-03-20T19:02:38.786Z,101106.22
2019-03-20T19:05:06.545Z,101115.53
2019-03-20T19:07:32.512Z,101112.89
2019-03-20T19:09:58.528Z,101120.48
2019-03-20T19:12:24.523Z,101105.05
2019-03-20T19:14:50.484Z,101115.29
2019-03-20T19:17:16.370Z,101117.98
2019-03-20T19:19:42.255Z,101125.97
2019-03-20T19:22:08.112Z,101126.02
2019-03-20T19:24:33.974Z,101124.27
2019-03-20T19:26:59.969Z,101121.58
2019-03-20T19:29:25.838Z,101121.08
2019-03-20T19:31:51.763Z,101126.42
2019-03-20T19:34:17.666Z,101130.83
2019-03-20T19:36:43.510Z,101134.36
2019-03-20T19:39:09.367Z,101137.45
2019-03-20T19:41:35.264Z,101137.98
2019-03-20T19:44:01.369Z,101136.70
2019-03-20T19:46:27.228Z,101125.75
2019-03-20T19:48:53.231Z,101138.13
2019-03-20T19:51:19.098Z,101147.88
2019-03-20T19:53:44.979Z,101156.33
2019-03-20T19:56:10.929Z,101162.59
2019-03-20T19:58:36.788Z,101159.52
2019-03-20T20:01:02.856Z,101157.35
2019-03-20T20:03:31.180Z,101146.19
2019-03-20T20:05:57.041Z,101159.71
2019-03-20T20:08:22.892Z,101170.39
2019-03-20T20:10:48.792Z,101174.92
2019-03-20T20:13:14.730Z,101173.70
2019-03-20T20:15:40.595Z,101174.64
2019-03-20T20:18:06.447Z,101178.30
2019-03-20T20:20:36.107Z,101174.92
2019-03-20T20:23:04.288Z,101179.86
2019-03-20T20:25:29.784Z,101186.08
2019-03-20T20:27:55.745Z,101194.48
2019-03-20T20:30:21.600Z,101195.42
2019-03-20T20:32:47.702Z,101195.07
2019-03-20T20:35:14.159Z,101181.07
2019-03-20T20:37:40.005Z,101180.36
2019-03-20T20:40:07.470Z,101182.22
2019-03-20T20:42:42.603Z,101189.41
2019-03-20T20:45:01.409Z,101195.21
2019-03-20T20:47:27.267Z,101200.11
2019-03-20T20:49:53.124Z,101197.16
2019-03-20T20:52:19.810Z,101201.20
2019-03-20T20:54:45.779Z,101199.00
2019-03-20T20:57:11.753Z,101201.73
2019-03-20T20:59:37.627Z,101205.34
2019-03-20T21:02:03.593Z,101198.34
2019-03-20T21:04:29.440Z,101196.58
2019-03-20T21:06:55.323Z,101198.83
2019-03-20T21:09:21.181Z,101205.42
2019-03-20T21:11:47.029Z,101198.91
2019-03-20T21:14:13.014Z,101211.73
2019-03-20T21:16:38.904Z,101214.41
2019-03-20T21:19:09.689Z,101212.25
2019-03-20T21:21:36.372Z,101207.01
2019-03-20T21:24:20.447Z,101207.89
2019-03-20T21:27:03.250Z,101202.61
2019-03-20T21:29:36.785Z,101205.30
2019-03-20T21:32:07.341Z,101201.38
2019-03-20T21:34:51.787Z,101203.61
2019-03-20T21:37:31.518Z,101207.63
2019-03-20T21:39:57.387Z,101213.86
2019-03-20T21:42:31.205Z,101226.67
2019-03-20T21:45:11.027Z,101242.95
2019-03-20T21:47:37.309Z,101244.08
2019-03-20T21:50:20.290Z,101253.96
2019-03-20T21:52:46.256Z,101258.91
2019-03-20T21:55:16.746Z,101268.75
2019-03-20T21:57:44.406Z,101264.03
2019-03-20T22:00:28.537Z,101257.44
2019-03-20T22:02:54.463Z,101261.39
2019-03-20T22:05:23.276Z,101262.62
2019-03-20T22:07:49.312Z,101257.31
2019-03-20T22:10:21.131Z,101259.03
2019-03-20T22:12:48.898Z,101264.75
2019-03-20T22:15:16.738Z,101269.19
2019-03-20T22:17:59.807Z,101273.19
2019-03-20T22:20:33.396Z,101282.47
2019-03-20T22:23:07.009Z,101286.91
2019-03-20T22:25:51.699Z,101274.70
2019-03-20T22:28:35.903Z,101277.93
2019-03-20T22:31:01.766Z,101281.23
2019-03-20T22:33:46.195Z,101291.53
2019-03-20T22:36:12.181Z,101290.75
2019-03-20T22:38:39.938Z,101285.08
2019-03-20T22:41:10.713Z,101279.40
2019-03-20T22:43:38.495Z,101280.72
2019-03-20T22:46:21.206Z,101290.86
2019-03-20T22:48:58.078Z,101286.94
2019-03-20T22:51:31.918Z,101295.26
2019-03-20T22:54:11.592Z,101298.41
2019-03-20T22:56:56.034Z,101303.69
2019-03-20T22:59:21.897Z,101308.05
2019-03-20T23:01:52.447Z,101318.52
2019-03-20T23:04:20.208Z,101313.22
2019-03-20T23:06:46.170Z,101314.94
2019-03-20T23:09:12.146Z,101315.34
2019-03-20T23:11:38.134Z,101321.02
2019-03-20T23:14:04.182Z,101321.90
2019-03-20T23:16:30.035Z,101317.06
2019-03-20T23:18:55.924Z,101323.22
2019-03-20T23:21:21.907Z,101326.30
2019-03-20T23:23:47.780Z,101322.75
2019-03-20T23:26:13.651Z,101329.38
2019-03-20T23:28:39.818Z,101334.25
2019-03-20T23:31:05.778Z,101344.80
2019-03-20T23:33:31.670Z,101335.97
2019-03-20T23:35:57.520Z,101343.04
2019-03-20T23:38:23.380Z,101340.84
2019-03-20T23:40:49.242Z,101339.97
2019-03-20T23:43:15.216Z,101347.51
2019-03-20T23:45:41.099Z,101353.28
2019-03-20T23:48:16.940Z,101291.75
2019-03-20T23:50:42.799Z,101359.88
2019-03-20T23:53:08.667Z,101350.62
2019-03-20T23:55:34.640Z,101353.62
2019-03-20T23:58:00.499Z,101352.27
